Portada
METAR-TAF:

METAR-TAF

Aeroports :

Wellington, Nova Zelanda

latitud: 41-20S, longitud: 174-48E, altitud: 12 m

Observació

L'informe es va fer fa 24 minuts, a les 08:30 UTC
Vent 17 kt del Nord
Temperatura 14°C
Humitat 82%
Pressió 1005 hPa
Visibilitat 10 km o més

METAR: NZWN 240830Z AUTO 35017KT 9999 BKN018/// 14/11 Q1005 NOSIG

Hora: 20:54 (08:54 UTC)

Pronòstic

L'informe es va fer fa 3 hores i 22 minuts, a les 05:32 UTC
Pronòstic vàlid del 24 a les 06 UTC al 25 a les 06 UTC
Vent 20 kt del Nord/Nord-Oest amb ràfegues de 30 kt
Visibilitat 10 km o més
Cel ennuvolat a una alçada de 2500 ft
Evolucionant progressivament
l' 24 a les 06 UTC al 24 a les 08 UTC
Vent 15 kt del Nord
A partir de les 24 a les 2100 UTC
Vent 18 kt del Nord/Nord-Oest amb ràfegues de 30 kt
Visibilitat 10 km o més
Núvols disperses a una alçada de 2500 ft

TAF: NZWN 240532Z 2406/2506 34020G30KT 9999 BKN025 BECMG 2406/2408 35015KT FM242100 34018G30KT 9999 SCT025

Observacions i pronòstics meteorològics de més de 4000 aeroports (METAR i TAF).

Les estacions disponibles són els punts grocs i vermells al mapa.

Posi el ratolí al punt desitjat per veure el nom de l'estació.

Feu clic per veure les observacions i els pronòstics meteorològics.

Per canviar el mapa: feu clic els botons verds amb una creu de color negre per apropar; al botó verd amb un guió per allunyar la imatge; o en les fletxes verdes per a mapes adjacents.


METAR-TAF: